sensor_id;sensor_type;location;lat;lon;timestamp;temperature;humidity
11122;DHT22;5615;49.304;10.576;2023-06-22T00:01:13;18.10;99.90
11122;DHT22;5615;49.304;10.576;2023-06-22T00:03:39;18.20;99.90
11122;DHT22;5615;49.304;10.576;2023-06-22T00:06:06;18.10;99.90
11122;DHT22;5615;49.304;10.576;2023-06-22T00:08:32;18.00;99.90
11122;DHT22;5615;49.304;10.576;2023-06-22T00:10:59;18.10;99.90
11122;DHT22;5615;49.304;10.576;2023-06-22T00:13:26;18.10;99.90
11122;DHT22;5615;49.304;10.576;2023-06-22T00:15:54;18.10;99.90
11122;DHT22;5615;49.304;10.576;2023-06-22T00:18:20;18.00;99.90
11122;DHT22;5615;49.304;10.576;2023-06-22T00:20:47;18.00;99.90
11122;DHT22;5615;49.304;10.576;2023-06-22T00:23:13;17.90;99.90
11122;DHT22;5615;49.304;10.576;2023-06-22T00:25:41;17.70;99.90
11122;DHT22;5615;49.304;10.576;2023-06-22T00:28:08;17.50;99.90
11122;DHT22;5615;49.304;10.576;2023-06-22T00:30:35;17.50;99.90
11122;DHT22;5615;49.304;10.576;2023-06-22T00:33:03;17.50;99.90
11122;DHT22;5615;49.304;10.576;2023-06-22T00:35:33;17.40;99.90
11122;DHT22;5615;49.304;10.576;2023-06-22T00:38:00;17.20;99.90
11122;DHT22;5615;49.304;10.576;2023-06-22T00:40:27;17.10;99.90
11122;DHT22;5615;49.304;10.576;2023-06-22T00:42:54;17.10;99.90
11122;DHT22;5615;49.304;10.576;2023-06-22T00:45:21;17.20;99.90
11122;DHT22;5615;49.304;10.576;2023-06-22T00:47:49;17.10;99.90
11122;DHT22;5615;49.304;10.576;2023-06-22T00:50:20;17.20;99.90
11122;DHT22;5615;49.304;10.576;2023-06-22T00:52:49;17.20;99.90
11122;DHT22;5615;49.304;10.576;2023-06-22T00:55:18;17.10;99.90
11122;DHT22;5615;49.304;10.576;2023-06-22T00:57:46;17.20;99.90
11122;DHT22;5615;49.304;10.576;2023-06-22T01:00:13;17.10;99.90
11122;DHT22;5615;49.304;10.576;2023-06-22T01:02:42;17.10;99.90
11122;DHT22;5615;49.304;10.576;2023-06-22T01:05:11;17.30;99.90
11122;DHT22;5615;49.304;10.576;2023-06-22T01:07:46;17.30;99.90
11122;DHT22;5615;49.304;10.576;2023-06-22T01:10:18;17.30;99.90
11122;DHT22;5615;49.304;10.576;2023-06-22T01:12:51;17.30;99.90
11122;DHT22;5615;49.304;10.576;2023-06-22T01:15:23;17.30;99.90
11122;DHT22;5615;49.304;10.576;2023-06-22T01:17:52;17.30;99.90
11122;DHT22;5615;49.304;10.576;2023-06-22T01:20:20;17.40;99.90
11122;DHT22;5615;49.304;10.576;2023-06-22T01:23:02;17.30;99.90
11122;DHT22;5615;49.304;10.576;2023-06-22T01:25:48;17.30;99.90
11122;DHT22;5615;49.304;10.576;2023-06-22T01:28:34;17.30;99.90
11122;DHT22;5615;49.304;10.576;2023-06-22T01:31:02;17.30;99.90
11122;DHT22;5615;49.304;10.576;2023-06-22T01:33:33;17.30;99.90
11122;DHT22;5615;49.304;10.576;2023-06-22T01:36:01;17.20;99.90
11122;DHT22;5615;49.304;10.576;2023-06-22T01:38:29;17.20;99.90
11122;DHT22;5615;49.304;10.576;2023-06-22T01:40:57;17.20;99.90
11122;DHT22;5615;49.304;10.576;2023-06-22T01:43:24;17.10;99.90
11122;DHT22;5615;49.304;10.576;2023-06-22T01:45:53;17.30;99.90
11122;DHT22;5615;49.304;10.576;2023-06-22T01:48:20;17.20;99.90
11122;DHT22;5615;49.304;10.576;2023-06-22T01:50:47;17.30;99.90
11122;DHT22;5615;49.304;10.576;2023-06-22T01:53:14;17.30;99.90
11122;DHT22;5615;49.304;10.576;2023-06-22T01:55:41;17.30;99.90
11122;DHT22;5615;49.304;10.576;2023-06-22T01:58:08;17.20;99.90
11122;DHT22;5615;49.304;10.576;2023-06-22T02:00:38;17.20;99.90
11122;DHT22;5615;49.304;10.576;2023-06-22T02:03:11;17.20;99.90
11122;DHT22;5615;49.304;10.576;2023-06-22T02:05:48;17.20;99.90
11122;DHT22;5615;49.304;10.576;2023-06-22T02:08:19;17.20;99.90
11122;DHT22;5615;49.304;10.576;2023-06-22T02:10:47;17.20;99.90
11122;DHT22;5615;49.304;10.576;2023-06-22T02:13:15;17.20;99.90
11122;DHT22;5615;49.304;10.576;2023-06-22T02:15:43;17.10;99.90
11122;DHT22;5615;49.304;10.576;2023-06-22T02:18:11;17.10;99.90
11122;DHT22;5615;49.304;10.576;2023-06-22T02:20:39;17.10;99.90
11122;DHT22;5615;49.304;10.576;2023-06-22T02:23:06;17.10;99.90
11122;DHT22;5615;49.304;10.576;2023-06-22T02:25:33;17.00;99.90
11122;DHT22;5615;49.304;10.576;2023-06-22T02:28:00;17.00;99.90
11122;DHT22;5615;49.304;10.576;2023-06-22T02:30:27;17.00;99.90
11122;DHT22;5615;49.304;10.576;2023-06-22T02:32:53;16.90;99.90
11122;DHT22;5615;49.304;10.576;2023-06-22T02:35:25;16.60;99.90
11122;DHT22;5615;49.304;10.576;2023-06-22T02:37:52;16.60;99.90
11122;DHT22;5615;49.304;10.576;2023-06-22T02:40:19;16.70;99.90
11122;DHT22;5615;49.304;10.576;2023-06-22T02:42:46;16.60;99.90
11122;DHT22;5615;49.304;10.576;2023-06-22T02:45:13;16.50;99.90
11122;DHT22;5615;49.304;10.576;2023-06-22T02:47:39;16.50;99.90
11122;DHT22;5615;49.304;10.576;2023-06-22T02:50:06;16.40;99.90
11122;DHT22;5615;49.304;10.576;2023-06-22T02:52:34;16.40;99.90
11122;DHT22;5615;49.304;10.576;2023-06-22T02:55:01;16.50;99.90
11122;DHT22;5615;49.304;10.576;2023-06-22T02:57:28;16.40;99.90
11122;DHT22;5615;49.304;10.576;2023-06-22T02:59:56;16.40;99.90
11122;DHT22;5615;49.304;10.576;2023-06-22T03:02:22;16.20;99.90
11122;DHT22;5615;49.304;10.576;2023-06-22T03:04:49;16.30;99.90
11122;DHT22;5615;49.304;10.576;2023-06-22T03:07:19;16.20;99.90
11122;DHT22;5615;49.304;10.576;2023-06-22T03:09:47;16.40;99.90
11122;DHT22;5615;49.304;10.576;2023-06-22T03:12:13;16.40;99.90
11122;DHT22;5615;49.304;10.576;2023-06-22T03:14:40;16.50;99.90
11122;DHT22;5615;49.304;10.576;2023-06-22T03:17:06;16.60;99.90
11122;DHT22;5615;49.304;10.576;2023-06-22T03:19:33;16.70;99.90
11122;DHT22;5615;49.304;10.576;2023-06-22T03:22:00;16.70;99.90
11122;DHT22;5615;49.304;10.576;2023-06-22T03:24:27;16.70;99.90
11122;DHT22;5615;49.304;10.576;2023-06-22T03:26:56;16.70;99.90
11122;DHT22;5615;49.304;10.576;2023-06-22T03:29:23;16.80;99.90
11122;DHT22;5615;49.304;10.576;2023-06-22T03:31:50;16.80;99.90
11122;DHT22;5615;49.304;10.576;2023-06-22T03:34:17;16.90;99.90
11122;DHT22;5615;49.304;10.576;2023-06-22T03:36:44;16.90;99.90
11122;DHT22;5615;49.304;10.576;2023-06-22T03:39:11;17.00;99.90
11122;DHT22;5615;49.304;10.576;2023-06-22T03:41:38;17.10;99.90
11122;DHT22;5615;49.304;10.576;2023-06-22T03:44:06;17.20;99.90
11122;DHT22;5615;49.304;10.576;2023-06-22T03:46:35;17.20;99.90
11122;DHT22;5615;49.304;10.576;2023-06-22T03:49:02;17.30;99.90
11122;DHT22;5615;49.304;10.576;2023-06-22T03:51:29;17.30;99.90
11122;DHT22;5615;49.304;10.576;2023-06-22T03:53:55;17.50;99.90
11122;DHT22;5615;49.304;10.576;2023-06-22T03:56:22;17.60;99.90
11122;DHT22;5615;49.304;10.576;2023-06-22T03:58:49;17.60;99.90
11122;DHT22;5615;49.304;10.576;2023-06-22T04:01:17;17.70;99.90
11122;DHT22;5615;49.304;10.576;2023-06-22T04:03:44;17.70;99.90
11122;DHT22;5615;49.304;10.576;2023-06-22T04:06:13;17.60;99.90
11122;DHT22;5615;49.304;10.576;2023-06-22T04:08:40;17.70;99.90
11122;DHT22;5615;49.304;10.576;2023-06-22T04:11:07;17.80;99.90
11122;DHT22;5615;49.304;10.576;2023-06-22T04:13:34;17.80;99.90
11122;DHT22;5615;49.304;10.576;2023-06-22T04:16:00;17.90;99.90
11122;DHT22;5615;49.304;10.576;2023-06-22T04:18:29;17.90;99.90
11122;DHT22;5615;49.304;10.576;2023-06-22T04:20:55;18.00;99.90
11122;DHT22;5615;49.304;10.576;2023-06-22T04:23:22;18.00;99.90
11122;DHT22;5615;49.304;10.576;2023-06-22T04:25:48;18.00;99.90
11122;DHT22;5615;49.304;10.576;2023-06-22T04:28:15;18.00;99.90
11122;DHT22;5615;49.304;10.576;2023-06-22T04:30:42;18.10;99.90
11122;DHT22;5615;49.304;10.576;2023-06-22T04:33:13;18.20;99.90
11122;DHT22;5615;49.304;10.576;2023-06-22T04:35:41;18.20;99.90
11122;DHT22;5615;49.304;10.576;2023-06-22T04:38:08;18.20;99.90
11122;DHT22;5615;49.304;10.576;2023-06-22T04:40:35;18.20;99.90
11122;DHT22;5615;49.304;10.576;2023-06-22T04:43:02;18.50;99.90
11122;DHT22;5615;49.304;10.576;2023-06-22T04:45:29;18.70;99.90
11122;DHT22;5615;49.304;10.576;2023-06-22T04:47:55;18.70;99.90
11122;DHT22;5615;49.304;10.576;2023-06-22T04:50:22;18.80;99.90
11122;DHT22;5615;49.304;10.576;2023-06-22T04:52:51;18.90;99.90
11122;DHT22;5615;49.304;10.576;2023-06-22T04:55:18;19.00;99.90
11122;DHT22;5615;49.304;10.576;2023-06-22T04:57:45;19.20;99.90
11122;DHT22;5615;49.304;10.576;2023-06-22T05:00:14;19.60;99.90
11122;DHT22;5615;49.304;10.576;2023-06-22T05:02:43;19.50;99.90
11122;DHT22;5615;49.304;10.576;2023-06-22T05:05:10;19.40;99.90
11122;DHT22;5615;49.304;10.576;2023-06-22T05:07:39;19.50;99.90
11122;DHT22;5615;49.304;10.576;2023-06-22T05:10:10;19.60;99.90
11122;DHT22;5615;49.304;10.576;2023-06-22T05:12:38;19.80;99.90
11122;DHT22;5615;49.304;10.576;2023-06-22T05:15:06;19.90;99.90
11122;DHT22;5615;49.304;10.576;2023-06-22T05:17:32;20.10;99.90
11122;DHT22;5615;49.304;10.576;2023-06-22T05:19:59;20.10;99.90
11122;DHT22;5615;49.304;10.576;2023-06-22T05:22:26;20.10;99.90
11122;DHT22;5615;49.304;10.576;2023-06-22T05:24:52;20.30;99.90
11122;DHT22;5615;49.304;10.576;2023-06-22T05:27:20;20.40;99.90
11122;DHT22;5615;49.304;10.576;2023-06-22T05:29:47;20.50;99.90
11122;DHT22;5615;49.304;10.576;2023-06-22T05:32:13;20.60;99.90
11122;DHT22;5615;49.304;10.576;2023-06-22T05:34:40;20.80;99.90
11122;DHT22;5615;49.304;10.576;2023-06-22T05:37:07;20.90;99.90
11122;DHT22;5615;49.304;10.576;2023-06-22T05:39:35;21.00;99.90
11122;DHT22;5615;49.304;10.576;2023-06-22T05:42:04;21.10;99.90
11122;DHT22;5615;49.304;10.576;2023-06-22T05:44:32;21.10;99.90
11122;DHT22;5615;49.304;10.576;2023-06-22T05:46:59;21.20;99.90
11122;DHT22;5615;49.304;10.576;2023-06-22T05:49:26;21.30;99.90
11122;DHT22;5615;49.304;10.576;2023-06-22T05:51:55;21.40;99.90
11122;DHT22;5615;49.304;10.576;2023-06-22T05:54:22;21.50;99.90
11122;DHT22;5615;49.304;10.576;2023-06-22T05:56:48;21.60;99.90
11122;DHT22;5615;49.304;10.576;2023-06-22T05:59:15;21.70;99.90
11122;DHT22;5615;49.304;10.576;2023-06-22T06:01:43;21.80;99.90
11122;DHT22;5615;49.304;10.576;2023-06-22T06:04:10;21.80;99.90
11122;DHT22;5615;49.304;10.576;2023-06-22T06:06:37;21.80;99.90
11122;DHT22;5615;49.304;10.576;2023-06-22T06:09:04;22.00;99.90
11122;DHT22;5615;49.304;10.576;2023-06-22T06:11:32;22.00;99.90
11122;DHT22;5615;49.304;10.576;2023-06-22T06:13:58;22.10;99.90
11122;DHT22;5615;49.304;10.576;2023-06-22T06:16:25;22.20;99.90
11122;DHT22;5615;49.304;10.576;2023-06-22T06:18:53;22.40;99.90
11122;DHT22;5615;49.304;10.576;2023-06-22T06:21:21;22.50;99.90
11122;DHT22;5615;49.304;10.576;2023-06-22T06:23:48;22.60;99.90
11122;DHT22;5615;49.304;10.576;2023-06-22T06:26:14;22.70;99.90
11122;DHT22;5615;49.304;10.576;2023-06-22T06:28:42;22.80;99.90
11122;DHT22;5615;49.304;10.576;2023-06-22T06:31:08;22.70;99.90
11122;DHT22;5615;49.304;10.576;2023-06-22T06:33:35;22.90;99.90
11122;DHT22;5615;49.304;10.576;2023-06-22T06:36:03;22.90;99.90
11122;DHT22;5615;49.304;10.576;2023-06-22T06:38:30;23.00;99.90
11122;DHT22;5615;49.304;10.576;2023-06-22T06:40:58;23.10;99.90
11122;DHT22;5615;49.304;10.576;2023-06-22T06:43:25;23.20;99.90
11122;DHT22;5615;49.304;10.576;2023-06-22T06:45:51;23.30;99.90
11122;DHT22;5615;49.304;10.576;2023-06-22T06:48:18;23.30;99.90
11122;DHT22;5615;49.304;10.576;2023-06-22T06:50:44;23.40;99.90
11122;DHT22;5615;49.304;10.576;2023-06-22T06:53:12;23.40;99.90
11122;DHT22;5615;49.304;10.576;2023-06-22T06:55:39;23.50;99.90
11122;DHT22;5615;49.304;10.576;2023-06-22T06:58:06;23.70;99.90
11122;DHT22;5615;49.304;10.576;2023-06-22T07:00:35;23.80;99.90
11122;DHT22;5615;49.304;10.576;2023-06-22T07:03:02;23.90;99.90
11122;DHT22;5615;49.304;10.576;2023-06-22T07:05:28;24.00;99.90
11122;DHT22;5615;49.304;10.576;2023-06-22T07:07:55;24.10;99.90
11122;DHT22;5615;49.304;10.576;2023-06-22T07:10:23;24.20;99.90
11122;DHT22;5615;49.304;10.576;2023-06-22T07:12:50;24.20;99.90
11122;DHT22;5615;49.304;10.576;2023-06-22T07:15:16;24.40;99.90
11122;DHT22;5615;49.304;10.576;2023-06-22T07:17:43;24.50;99.90
11122;DHT22;5615;49.304;10.576;2023-06-22T07:20:11;24.50;99.90
11122;DHT22;5615;49.304;10.576;2023-06-22T07:22:38;24.60;99.90
11122;DHT22;5615;49.304;10.576;2023-06-22T07:25:06;24.70;99.90
11122;DHT22;5615;49.304;10.576;2023-06-22T07:27:36;24.80;99.90
11122;DHT22;5615;49.304;10.576;2023-06-22T07:30:04;24.90;99.90
11122;DHT22;5615;49.304;10.576;2023-06-22T07:32:31;24.90;99.90
11122;DHT22;5615;49.304;10.576;2023-06-22T07:34:58;24.90;99.90
11122;DHT22;5615;49.304;10.576;2023-06-22T07:37:25;25.00;99.90
11122;DHT22;5615;49.304;10.576;2023-06-22T07:39:52;25.20;99.90
11122;DHT22;5615;49.304;10.576;2023-06-22T07:42:24;25.30;99.90
11122;DHT22;5615;49.304;10.576;2023-06-22T07:44:52;25.40;99.90
11122;DHT22;5615;49.304;10.576;2023-06-22T07:47:18;25.40;99.90
11122;DHT22;5615;49.304;10.576;2023-06-22T07:49:45;25.50;99.90
11122;DHT22;5615;49.304;10.576;2023-06-22T07:52:12;25.50;99.90
11122;DHT22;5615;49.304;10.576;2023-06-22T07:54:39;25.50;99.90
11122;DHT22;5615;49.304;10.576;2023-06-22T07:57:05;25.80;99.90
11122;DHT22;5615;49.304;10.576;2023-06-22T07:59:32;25.80;99.90
11122;DHT22;5615;49.304;10.576;2023-06-22T08:02:01;26.10;99.90
11122;DHT22;5615;49.304;10.576;2023-06-22T08:04:28;26.30;99.90
11122;DHT22;5615;49.304;10.576;2023-06-22T08:06:56;26.60;99.90
11122;DHT22;5615;49.304;10.576;2023-06-22T08:09:22;26.70;99.90
11122;DHT22;5615;49.304;10.576;2023-06-22T08:11:49;26.40;99.90
11122;DHT22;5615;49.304;10.576;2023-06-22T08:14:16;26.40;99.90
11122;DHT22;5615;49.304;10.576;2023-06-22T08:16:42;26.60;99.90
11122;DHT22;5615;49.304;10.576;2023-06-22T08:19:10;26.80;99.90
11122;DHT22;5615;49.304;10.576;2023-06-22T08:21:37;27.10;99.90
11122;DHT22;5615;49.304;10.576;2023-06-22T08:24:04;27.10;99.90
11122;DHT22;5615;49.304;10.576;2023-06-22T08:26:32;27.40;99.90
11122;DHT22;5615;49.304;10.576;2023-06-22T08:29:02;27.60;99.90
11122;DHT22;5615;49.304;10.576;2023-06-22T08:31:28;27.70;99.90
11122;DHT22;5615;49.304;10.576;2023-06-22T08:33:55;27.90;99.90
11122;DHT22;5615;49.304;10.576;2023-06-22T08:36:23;28.10;99.90
11122;DHT22;5615;49.304;10.576;2023-06-22T08:38:51;28.10;99.90
11122;DHT22;5615;49.304;10.576;2023-06-22T08:41:18;28.20;99.90
11122;DHT22;5615;49.304;10.576;2023-06-22T08:43:45;28.20;99.90
11122;DHT22;5615;49.304;10.576;2023-06-22T08:46:12;28.20;99.90
11122;DHT22;5615;49.304;10.576;2023-06-22T08:48:38;28.30;99.90
11122;DHT22;5615;49.304;10.576;2023-06-22T08:51:05;28.40;99.90
11122;DHT22;5615;49.304;10.576;2023-06-22T08:53:33;28.50;99.90
11122;DHT22;5615;49.304;10.576;2023-06-22T08:56:00;28.40;99.90
11122;DHT22;5615;49.304;10.576;2023-06-22T08:58:27;28.70;99.90
11122;DHT22;5615;49.304;10.576;2023-06-22T09:00:53;28.80;99.90
11122;DHT22;5615;49.304;10.576;2023-06-22T09:03:20;29.10;99.90
11122;DHT22;5615;49.304;10.576;2023-06-22T09:05:46;29.50;99.90
11122;DHT22;5615;49.304;10.576;2023-06-22T09:08:13;29.40;99.90
11122;DHT22;5615;49.304;10.576;2023-06-22T09:10:41;29.50;99.90
11122;DHT22;5615;49.304;10.576;2023-06-22T09:13:08;29.20;99.90
11122;DHT22;5615;49.304;10.576;2023-06-22T09:15:34;29.20;99.90
11122;DHT22;5615;49.304;10.576;2023-06-22T09:18:01;29.40;99.90
11122;DHT22;5615;49.304;10.576;2023-06-22T09:20:28;29.40;99.90
11122;DHT22;5615;49.304;10.576;2023-06-22T09:22:54;29.80;99.90
11122;DHT22;5615;49.304;10.576;2023-06-22T09:25:21;30.30;99.90
11122;DHT22;5615;49.304;10.576;2023-06-22T09:27:49;30.30;99.90
11122;DHT22;5615;49.304;10.576;2023-06-22T09:30:15;30.50;99.90
11122;DHT22;5615;49.304;10.576;2023-06-22T09:32:42;30.40;99.90
11122;DHT22;5615;49.304;10.576;2023-06-22T09:35:09;30.80;99.90
11122;DHT22;5615;49.304;10.576;2023-06-22T09:37:38;31.30;99.90
11122;DHT22;5615;49.304;10.576;2023-06-22T09:40:06;31.50;99.90
11122;DHT22;5615;49.304;10.576;2023-06-22T09:42:36;31.60;99.00
11122;DHT22;5615;49.304;10.576;2023-06-22T09:45:05;31.70;99.00
11122;DHT22;5615;49.304;10.576;2023-06-22T09:47:31;31.90;97.70
11122;DHT22;5615;49.304;10.576;2023-06-22T09:49:58;31.70;97.40
11122;DHT22;5615;49.304;10.576;2023-06-22T09:52:25;31.70;97.90
11122;DHT22;5615;49.304;10.576;2023-06-22T09:54:52;32.00;97.40
11122;DHT22;5615;49.304;10.576;2023-06-22T09:57:18;32.60;96.60
11122;DHT22;5615;49.304;10.576;2023-06-22T09:59:45;33.10;95.00
11122;DHT22;5615;49.304;10.576;2023-06-22T10:02:13;33.50;93.80
11122;DHT22;5615;49.304;10.576;2023-06-22T10:04:40;33.80;92.40
11122;DHT22;5615;49.304;10.576;2023-06-22T10:07:06;34.00;92.10
11122;DHT22;5615;49.304;10.576;2023-06-22T10:09:33;34.50;90.80
11122;DHT22;5615;49.304;10.576;2023-06-22T10:12:00;34.80;89.20
11122;DHT22;5615;49.304;10.576;2023-06-22T10:14:26;35.00;87.70
11122;DHT22;5615;49.304;10.576;2023-06-22T10:16:55;34.30;83.20
11122;DHT22;5615;49.304;10.576;2023-06-22T10:19:23;33.90;81.90
11122;DHT22;5615;49.304;10.576;2023-06-22T10:21:49;33.80;81.60
11122;DHT22;5615;49.304;10.576;2023-06-22T10:24:16;34.60;81.00
11122;DHT22;5615;49.304;10.576;2023-06-22T10:26:42;34.60;76.70
11122;DHT22;5615;49.304;10.576;2023-06-22T10:29:09;34.70;77.60
11122;DHT22;5615;49.304;10.576;2023-06-22T10:31:36;35.20;76.10
11122;DHT22;5615;49.304;10.576;2023-06-22T10:34:02;35.40;72.40
11122;DHT22;5615;49.304;10.576;2023-06-22T10:36:30;35.20;71.20
11122;DHT22;5615;49.304;10.576;2023-06-22T10:38:57;36.00;70.10
11122;DHT22;5615;49.304;10.576;2023-06-22T10:41:24;35.50;68.30
11122;DHT22;5615;49.304;10.576;2023-06-22T10:43:51;35.70;66.90
11122;DHT22;5615;49.304;10.576;2023-06-22T10:46:18;36.10;66.30
11122;DHT22;5615;49.304;10.576;2023-06-22T10:48:44;36.00;65.10
11122;DHT22;5615;49.304;10.576;2023-06-22T10:51:11;36.70;64.20
11122;DHT22;5615;49.304;10.576;2023-06-22T10:53:39;37.40;62.20
11122;DHT22;5615;49.304;10.576;2023-06-22T10:56:05;37.70;59.50
11122;DHT22;5615;49.304;10.576;2023-06-22T10:58:32;37.60;58.00
11122;DHT22;5615;49.304;10.576;2023-06-22T11:00:59;38.00;57.80
11122;DHT22;5615;49.304;10.576;2023-06-22T11:03:25;38.20;55.80
11122;DHT22;5615;49.304;10.576;2023-06-22T11:05:52;38.40;54.90
11122;DHT22;5615;49.304;10.576;2023-06-22T11:08:18;38.90;54.30
11122;DHT22;5615;49.304;10.576;2023-06-22T11:10:46;39.90;52.00
11122;DHT22;5615;49.304;10.576;2023-06-22T11:13:13;38.90;49.20
11122;DHT22;5615;49.304;10.576;2023-06-22T11:15:40;39.20;50.50
11122;DHT22;5615;49.304;10.576;2023-06-22T11:18:06;40.30;49.10
11122;DHT22;5615;49.304;10.576;2023-06-22T11:20:33;40.70;46.90
11122;DHT22;5615;49.304;10.576;2023-06-22T11:23:04;39.90;46.60
11122;DHT22;5615;49.304;10.576;2023-06-22T11:25:31;40.50;46.10
11122;DHT22;5615;49.304;10.576;2023-06-22T11:28:01;40.80;44.40
11122;DHT22;5615;49.304;10.576;2023-06-22T11:30:28;39.90;44.20
11122;DHT22;5615;49.304;10.576;2023-06-22T11:32:56;39.80;45.10
11122;DHT22;5615;49.304;10.576;2023-06-22T11:35:23;39.90;44.00
11122;DHT22;5615;49.304;10.576;2023-06-22T11:37:49;40.20;43.50
11122;DHT22;5615;49.304;10.576;2023-06-22T11:40:16;40.10;42.30
11122;DHT22;5615;49.304;10.576;2023-06-22T11:42:43;41.10;41.70
11122;DHT22;5615;49.304;10.576;2023-06-22T11:45:11;41.30;41.10
11122;DHT22;5615;49.304;10.576;2023-06-22T11:47:38;42.00;39.30
11122;DHT22;5615;49.304;10.576;2023-06-22T11:50:06;42.50;38.70
11122;DHT22;5615;49.304;10.576;2023-06-22T11:52:33;43.10;37.60
11122;DHT22;5615;49.304;10.576;2023-06-22T11:55:01;43.50;35.70
11122;DHT22;5615;49.304;10.576;2023-06-22T11:57:29;42.90;35.40
11122;DHT22;5615;49.304;10.576;2023-06-22T11:59:55;42.80;34.20
11122;DHT22;5615;49.304;10.576;2023-06-22T12:02:23;41.70;34.60
11122;DHT22;5615;49.304;10.576;2023-06-22T12:04:50;42.20;33.40
11122;DHT22;5615;49.304;10.576;2023-06-22T12:07:17;42.80;32.40
11122;DHT22;5615;49.304;10.576;2023-06-22T12:09:44;41.80;33.20
11122;DHT22;5615;49.304;10.576;2023-06-22T12:12:11;41.30;33.70
11122;DHT22;5615;49.304;10.576;2023-06-22T12:14:37;41.50;33.90
11122;DHT22;5615;49.304;10.576;2023-06-22T12:17:04;41.60;33.00
11122;DHT22;5615;49.304;10.576;2023-06-22T12:19:32;40.60;34.00
11122;DHT22;5615;49.304;10.576;2023-06-22T12:21:58;41.10;34.10
11122;DHT22;5615;49.304;10.576;2023-06-22T12:24:25;41.30;33.60
11122;DHT22;5615;49.304;10.576;2023-06-22T12:26:52;42.30;32.90
11122;DHT22;5615;49.304;10.576;2023-06-22T12:29:18;43.30;31.50
11122;DHT22;5615;49.304;10.576;2023-06-22T12:31:45;43.70;30.90
11122;DHT22;5615;49.304;10.576;2023-06-22T12:34:11;43.40;29.50
11122;DHT22;5615;49.304;10.576;2023-06-22T12:36:39;43.30;29.60
11122;DHT22;5615;49.304;10.576;2023-06-22T12:39:06;42.40;29.50
11122;DHT22;5615;49.304;10.576;2023-06-22T12:41:32;41.10;30.80
11122;DHT22;5615;49.304;10.576;2023-06-22T12:43:59;41.00;31.00
11122;DHT22;5615;49.304;10.576;2023-06-22T12:46:26;41.60;31.00
11122;DHT22;5615;49.304;10.576;2023-06-22T12:48:53;41.90;30.00
11122;DHT22;5615;49.304;10.576;2023-06-22T12:51:23;43.00;29.80
11122;DHT22;5615;49.304;10.576;2023-06-22T12:53:50;43.40;29.20
11122;DHT22;5615;49.304;10.576;2023-06-22T12:56:17;43.30;29.30
11122;DHT22;5615;49.304;10.576;2023-06-22T12:58:44;42.10;29.80
11122;DHT22;5615;49.304;10.576;2023-06-22T13:01:10;43.00;29.40
11122;DHT22;5615;49.304;10.576;2023-06-22T13:03:37;44.00;28.90
11122;DHT22;5615;49.304;10.576;2023-06-22T13:06:03;43.80;28.10
11122;DHT22;5615;49.304;10.576;2023-06-22T13:08:30;43.10;28.20
11122;DHT22;5615;49.304;10.576;2023-06-22T13:10:58;41.70;28.80
11122;DHT22;5615;49.304;10.576;2023-06-22T13:13:25;40.60;29.80
11122;DHT22;5615;49.304;10.576;2023-06-22T13:15:52;39.50;30.60
11122;DHT22;5615;49.304;10.576;2023-06-22T13:18:19;38.90;32.00
11122;DHT22;5615;49.304;10.576;2023-06-22T13:20:46;37.80;32.90
11122;DHT22;5615;49.304;10.576;2023-06-22T13:23:12;37.60;33.70
11122;DHT22;5615;49.304;10.576;2023-06-22T13:25:39;37.50;34.60
11122;DHT22;5615;49.304;10.576;2023-06-22T13:28:07;37.50;33.80
11122;DHT22;5615;49.304;10.576;2023-06-22T13:30:34;37.40;34.00
11122;DHT22;5615;49.304;10.576;2023-06-22T13:33:00;37.50;34.20
11122;DHT22;5615;49.304;10.576;2023-06-22T13:35:27;38.00;34.60
11122;DHT22;5615;49.304;10.576;2023-06-22T13:37:53;39.30;33.00
11122;DHT22;5615;49.304;10.576;2023-06-22T13:40:20;39.50;32.30
11122;DHT22;5615;49.304;10.576;2023-06-22T13:42:47;39.50;32.10
11122;DHT22;5615;49.304;10.576;2023-06-22T13:45:15;39.20;31.90
11122;DHT22;5615;49.304;10.576;2023-06-22T13:47:44;38.90;31.90
11122;DHT22;5615;49.304;10.576;2023-06-22T13:50:11;39.10;32.10
11122;DHT22;5615;49.304;10.576;2023-06-22T13:52:39;39.00;31.90
11122;DHT22;5615;49.304;10.576;2023-06-22T13:55:06;38.20;32.40
11122;DHT22;5615;49.304;10.576;2023-06-22T13:57:33;37.80;32.90
11122;DHT22;5615;49.304;10.576;2023-06-22T14:00:00;37.50;33.60
11122;DHT22;5615;49.304;10.576;2023-06-22T14:02:28;38.50;33.40
11122;DHT22;5615;49.304;10.576;2023-06-22T14:04:54;39.10;32.70
11122;DHT22;5615;49.304;10.576;2023-06-22T14:07:21;39.80;31.20
11122;DHT22;5615;49.304;10.576;2023-06-22T14:09:49;40.30;30.20
11122;DHT22;5615;49.304;10.576;2023-06-22T14:12:16;40.30;30.10
11122;DHT22;5615;49.304;10.576;2023-06-22T14:14:43;40.70;29.80
11122;DHT22;5615;49.304;10.576;2023-06-22T14:17:10;40.40;29.80
11122;DHT22;5615;49.304;10.576;2023-06-22T14:19:38;39.00;30.70
11122;DHT22;5615;49.304;10.576;2023-06-22T14:22:05;38.00;31.40
11122;DHT22;5615;49.304;10.576;2023-06-22T14:24:32;38.10;31.60
11122;DHT22;5615;49.304;10.576;2023-06-22T14:26:58;38.00;31.70
11122;DHT22;5615;49.304;10.576;2023-06-22T14:29:28;39.10;31.30
11122;DHT22;5615;49.304;10.576;2023-06-22T14:31:54;39.60;31.00
11122;DHT22;5615;49.304;10.576;2023-06-22T14:34:21;40.80;30.30
11122;DHT22;5615;49.304;10.576;2023-06-22T14:36:49;42.50;29.20
11122;DHT22;5615;49.304;10.576;2023-06-22T14:39:16;43.40;27.80
11122;DHT22;5615;49.304;10.576;2023-06-22T14:41:42;44.10;27.20
11122;DHT22;5615;49.304;10.576;2023-06-22T14:44:09;43.90;26.70
11122;DHT22;5615;49.304;10.576;2023-06-22T14:46:36;43.90;26.60
11122;DHT22;5615;49.304;10.576;2023-06-22T14:49:02;44.50;26.40
11122;DHT22;5615;49.304;10.576;2023-06-22T14:51:29;45.20;26.20
11122;DHT22;5615;49.304;10.576;2023-06-22T14:53:57;45.70;26.50
11122;DHT22;5615;49.304;10.576;2023-06-22T14:56:23;45.70;25.50
11122;DHT22;5615;49.304;10.576;2023-06-22T14:58:50;45.70;25.10
11122;DHT22;5615;49.304;10.576;2023-06-22T15:01:17;45.90;25.00
11122;DHT22;5615;49.304;10.576;2023-06-22T15:03:44;45.30;24.70
11122;DHT22;5615;49.304;10.576;2023-06-22T15:06:11;46.30;23.90
11122;DHT22;5615;49.304;10.576;2023-06-22T15:08:38;47.30;22.70
11122;DHT22;5615;49.304;10.576;2023-06-22T15:11:06;47.90;22.00
11122;DHT22;5615;49.304;10.576;2023-06-22T15:13:33;48.10;21.10
11122;DHT22;5615;49.304;10.576;2023-06-22T15:16:01;47.20;21.80
11122;DHT22;5615;49.304;10.576;2023-06-22T15:18:28;46.20;22.20
11122;DHT22;5615;49.304;10.576;2023-06-22T15:20:55;44.80;23.10
11122;DHT22;5615;49.304;10.576;2023-06-22T15:23:23;44.50;23.10
11122;DHT22;5615;49.304;10.576;2023-06-22T15:25:51;44.90;23.30
11122;DHT22;5615;49.304;10.576;2023-06-22T15:28:19;44.80;22.70
11122;DHT22;5615;49.304;10.576;2023-06-22T15:30:46;45.30;22.20